createdAt,value
2018-11-03T00:00:49.900Z,3.17
2018-11-03T00:03:17.046Z,3.67
2018-11-03T00:05:44.170Z,3.33
2018-11-03T00:08:11.334Z,3.23
2018-11-03T00:10:38.476Z,3.83
2018-11-03T00:13:05.756Z,3.83
2018-11-03T00:15:32.883Z,3.77
2018-11-03T00:18:00.057Z,3.50
2018-11-03T00:20:27.185Z,3.63
2018-11-03T00:22:54.331Z,3.87
2018-11-03T00:25:21.460Z,3.80
2018-11-03T00:27:48.590Z,3.80
2018-11-03T00:30:15.703Z,4.23
2018-11-03T00:32:42.842Z,4.37
2018-11-03T00:35:10.222Z,3.63
2018-11-03T00:37:37.491Z,4.23
2018-11-03T00:40:07.587Z,4.27
2018-11-03T00:42:34.753Z,4.37
2018-11-03T00:45:01.861Z,4.00
2018-11-03T00:47:28.974Z,4.23
2018-11-03T00:49:56.094Z,4.40
2018-11-03T00:52:23.236Z,4.43
2018-11-03T00:54:50.370Z,4.30
2018-11-03T00:57:17.551Z,5.13
2018-11-03T00:59:44.715Z,4.50
2018-11-03T01:02:11.859Z,4.87
2018-11-03T01:04:39.050Z,4.73
2018-11-03T01:07:06.342Z,5.07
2018-11-03T01:09:33.479Z,5.23
2018-11-03T01:12:00.627Z,5.17
2018-11-03T01:14:27.773Z,5.23
2018-11-03T01:16:54.932Z,5.10
2018-11-03T01:19:22.068Z,4.90
2018-11-03T01:21:49.228Z,5.13
2018-11-03T01:24:16.376Z,5.37
2018-11-03T01:26:43.664Z,4.83
2018-11-03T01:29:11.028Z,5.40
2018-11-03T01:31:38.282Z,5.70
2018-11-03T01:34:05.502Z,5.73
2018-11-03T01:36:32.631Z,6.07
2018-11-03T01:38:59.776Z,5.57
2018-11-03T01:41:26.916Z,5.13
2018-11-03T01:43:54.046Z,6.20
2018-11-03T01:46:21.202Z,6.53
2018-11-03T01:48:48.364Z,6.23
2018-11-03T01:51:15.496Z,6.60
2018-11-03T01:53:42.702Z,6.80
2018-11-03T01:56:09.787Z,6.70
2018-11-03T01:58:36.923Z,6.57
2018-11-03T02:01:04.218Z,5.97
2018-11-03T02:03:31.417Z,6.20
2018-11-03T02:05:58.506Z,6.13
2018-11-03T02:08:25.720Z,5.90
2018-11-03T02:10:52.848Z,5.73
2018-11-03T02:13:19.991Z,6.47
2018-11-03T02:15:47.143Z,6.70
2018-11-03T02:18:14.281Z,5.57
2018-11-03T02:20:41.484Z,5.47
2018-11-03T02:23:08.621Z,5.50
2018-11-03T02:25:35.742Z,6.00
2018-11-03T02:28:02.885Z,6.77
2018-11-03T02:30:30.027Z,5.97
2018-11-03T02:32:57.183Z,6.13
2018-11-03T02:35:24.327Z,5.87
2018-11-03T02:37:51.460Z,5.70
2018-11-03T02:40:18.594Z,6.03
2018-11-03T02:42:45.737Z,6.10
2018-11-03T02:45:12.856Z,7.40
2018-11-03T02:47:40.554Z,5.93
2018-11-03T02:50:09.846Z,7.43
2018-11-03T02:52:36.966Z,7.10
2018-11-03T02:55:04.515Z,8.13
2018-11-03T02:57:31.634Z,7.60
2018-11-03T02:59:58.804Z,7.23
2018-11-03T03:02:25.947Z,7.73
2018-11-03T03:04:53.077Z,7.83
2018-11-03T03:07:20.237Z,8.00
2018-11-03T03:09:47.366Z,8.30
2018-11-03T03:12:14.762Z,7.90
2018-11-03T03:14:41.975Z,7.70
2018-11-03T03:17:09.143Z,7.87
2018-11-03T03:19:36.275Z,7.20
2018-11-03T03:22:03.422Z,7.17
2018-11-03T03:24:30.550Z,8.20
2018-11-03T03:26:57.685Z,8.07
2018-11-03T03:29:24.832Z,7.60
2018-11-03T03:31:51.927Z,7.37
2018-11-03T03:34:19.062Z,7.33
2018-11-03T03:36:46.190Z,7.03
2018-11-03T03:39:13.316Z,7.80
2018-11-03T03:41:40.478Z,8.13
2018-11-03T03:44:07.624Z,7.60
2018-11-03T03:46:34.931Z,7.80
2018-11-03T03:49:02.104Z,8.23
2018-11-03T03:51:29.327Z,7.33
2018-11-03T03:53:56.451Z,8.23
2018-11-03T03:56:23.591Z,7.40
2018-11-03T03:58:50.695Z,8.43
2018-11-03T04:01:17.904Z,7.40
2018-11-03T04:03:45.050Z,6.90
2018-11-03T04:06:12.154Z,7.33
2018-11-03T04:08:39.394Z,7.70
2018-11-03T04:11:06.595Z,6.73
2018-11-03T04:13:33.843Z,7.50
2018-11-03T04:16:01.006Z,7.33
2018-11-03T04:18:28.126Z,7.03
2018-11-03T04:20:55.241Z,7.47
2018-11-03T04:23:22.357Z,7.47
2018-11-03T04:25:49.643Z,7.37
2018-11-03T04:28:16.768Z,6.90
2018-11-03T04:30:43.942Z,7.17
2018-11-03T04:33:11.058Z,7.57
2018-11-03T04:35:38.205Z,7.20
2018-11-03T04:38:05.416Z,7.93
2018-11-03T04:40:32.581Z,7.53
2018-11-03T04:42:59.705Z,8.50
2018-11-03T04:45:26.866Z,7.70
2018-11-03T04:47:53.978Z,8.20
2018-11-03T04:50:21.118Z,7.23
2018-11-03T04:52:48.267Z,7.90
2018-11-03T04:55:15.522Z,7.93
2018-11-03T04:57:42.602Z,7.67
2018-11-03T05:00:10.258Z,6.90
2018-11-03T05:02:37.442Z,6.57
2018-11-03T05:05:04.876Z,7.43
2018-11-03T05:07:32.003Z,7.67
2018-11-03T05:09:59.201Z,7.03
2018-11-03T05:12:26.331Z,7.60
2018-11-03T05:14:54.098Z,8.17
2018-11-03T05:17:21.244Z,8.07
2018-11-03T05:19:48.508Z,7.03
2018-11-03T05:22:15.646Z,8.27
2018-11-03T05:24:42.775Z,7.47
2018-11-03T05:27:09.916Z,7.10
2018-11-03T05:29:37.074Z,7.93
2018-11-03T05:32:04.582Z,7.80
2018-11-03T05:34:31.774Z,8.10
2018-11-03T05:36:58.910Z,8.00
2018-11-03T05:39:26.022Z,8.20
2018-11-03T05:41:53.129Z,8.80
2018-11-03T05:44:20.249Z,8.43
2018-11-03T05:46:47.388Z,9.20
2018-11-03T05:49:14.877Z,8.67
2018-11-03T05:51:41.991Z,8.87
2018-11-03T05:54:09.133Z,8.47
2018-11-03T05:56:36.280Z,9.43
2018-11-03T05:59:03.551Z,8.60
2018-11-03T06:01:30.582Z,8.97
2018-11-03T06:03:57.734Z,9.03
2018-11-03T06:06:24.977Z,8.43
2018-11-03T06:08:52.182Z,8.53
2018-11-03T06:11:19.280Z,8.93
2018-11-03T06:13:46.406Z,7.67
2018-11-03T06:16:13.558Z,7.57
2018-11-03T06:18:40.853Z,7.77
2018-11-03T06:21:07.995Z,7.80
2018-11-03T06:23:35.172Z,7.43
2018-11-03T06:26:02.243Z,7.67
2018-11-03T06:28:29.383Z,7.60
2018-11-03T06:30:56.545Z,7.43
2018-11-03T06:33:23.694Z,6.83
2018-11-03T06:35:50.822Z,7.43
2018-11-03T06:38:17.966Z,7.73
2018-11-03T06:40:45.130Z,7.33
2018-11-03T06:43:12.294Z,8.00
2018-11-03T06:45:39.442Z,6.70
2018-11-03T06:48:06.680Z,9.00
2018-11-03T06:50:33.814Z,9.60
2018-11-03T06:53:01.066Z,9.77
2018-11-03T06:55:28.772Z,9.13
2018-11-03T06:57:55.894Z,8.77
2018-11-03T07:00:23.443Z,8.33
2018-11-03T07:02:50.600Z,7.67
2018-11-03T07:05:17.849Z,9.30
2018-11-03T07:07:44.878Z,8.37
2018-11-03T07:10:12.034Z,7.77
2018-11-03T07:12:39.675Z,7.53
2018-11-03T07:15:06.698Z,8.17
2018-11-03T07:17:34.315Z,7.70
2018-11-03T07:20:02.445Z,7.83
2018-11-03T07:22:29.602Z,8.00
2018-11-03T07:24:56.772Z,7.13
2018-11-03T07:27:23.910Z,7.37
2018-11-03T07:29:51.112Z,6.90
2018-11-03T07:32:18.183Z,7.20
2018-11-03T07:34:45.355Z,7.17
2018-11-03T07:37:12.502Z,6.73
2018-11-03T07:39:39.647Z,6.40
2018-11-03T07:42:06.912Z,6.53
2018-11-03T07:44:34.057Z,8.93
2018-11-03T07:47:01.203Z,7.67
2018-11-03T07:49:28.449Z,7.97
2018-11-03T07:51:55.494Z,7.80
2018-11-03T07:54:22.637Z,7.13
2018-11-03T07:56:49.852Z,8.07
2018-11-03T07:59:17.010Z,7.67
2018-11-03T08:01:44.182Z,7.73
2018-11-03T08:04:11.317Z,8.43
2018-11-03T08:06:38.507Z,7.83
2018-11-03T08:09:07.125Z,7.90
2018-11-03T08:11:34.247Z,8.33
2018-11-03T08:14:01.386Z,8.30
2018-11-03T08:16:28.562Z,7.93
2018-11-03T08:18:55.686Z,8.10
2018-11-03T08:21:22.829Z,7.83
2018-11-03T08:23:49.976Z,8.13
2018-11-03T08:26:17.057Z,8.40
2018-11-03T08:28:44.188Z,7.70
2018-11-03T08:31:11.322Z,7.30
2018-11-03T08:33:38.458Z,8.70
2018-11-03T08:36:05.623Z,8.63
2018-11-03T08:38:32.765Z,7.27
2018-11-03T08:40:59.895Z,6.20
2018-11-03T08:43:27.011Z,6.33
2018-11-03T08:45:59.887Z,8.37
2018-11-03T08:48:26.976Z,7.90
2018-11-03T08:50:54.099Z,7.80
2018-11-03T08:53:21.240Z,8.33
2018-11-03T08:55:48.398Z,9.73
2018-11-03T08:58:15.553Z,6.10
2018-11-03T09:00:42.693Z,4.83
2018-11-03T09:03:09.833Z,7.27
2018-11-03T09:05:36.960Z,5.77
2018-11-03T09:08:04.451Z,4.83
2018-11-03T09:10:31.579Z,4.80
2018-11-03T09:12:58.727Z,4.07
2018-11-03T09:15:25.883Z,4.20
2018-11-03T09:17:53.007Z,4.37
2018-11-03T09:20:20.168Z,4.37
2018-11-03T09:22:47.383Z,4.30
2018-11-03T09:25:16.263Z,4.13
2018-11-03T09:27:43.843Z,3.60
2018-11-03T09:30:13.438Z,3.50
2018-11-03T09:32:40.803Z,4.33
2018-11-03T09:35:08.966Z,3.30
2018-11-03T09:37:36.162Z,3.50
2018-11-03T09:40:03.779Z,3.80
2018-11-03T09:42:30.885Z,3.60
2018-11-03T09:44:58.101Z,3.57
2018-11-03T09:47:25.207Z,4.00
2018-11-03T09:49:52.333Z,3.37
2018-11-03T09:52:19.506Z,4.50
2018-11-03T09:54:46.667Z,4.67
2018-11-03T09:57:13.819Z,3.93
2018-11-03T09:59:40.947Z,4.50
2018-11-03T10:02:08.086Z,4.20
2018-11-03T10:04:35.241Z,5.07
2018-11-03T10:07:02.390Z,4.70
2018-11-03T10:09:29.691Z,4.60
2018-11-03T10:11:56.879Z,5.00
2018-11-03T10:14:24.008Z,4.67
2018-11-03T10:16:51.166Z,4.87
2018-11-03T10:19:18.364Z,4.43
2018-11-03T10:21:45.535Z,4.80
2018-11-03T10:24:12.701Z,4.83
2018-11-03T10:26:39.930Z,3.90
2018-11-03T10:29:07.066Z,4.30
2018-11-03T10:31:34.222Z,4.07
2018-11-03T10:34:01.374Z,3.93
2018-11-03T10:36:28.533Z,3.80
2018-11-03T10:38:55.684Z,3.83
2018-11-03T10:41:22.833Z,4.07
2018-11-03T10:43:49.982Z,3.67
2018-11-03T10:46:17.180Z,3.77
2018-11-03T10:48:44.240Z,3.53
2018-11-03T10:51:11.400Z,4.27
2018-11-03T10:53:38.626Z,3.43
2018-11-03T10:56:05.770Z,4.30
2018-11-03T10:58:32.943Z,4.27
2018-11-03T11:01:05.948Z,3.70
2018-11-03T11:03:38.933Z,3.57
2018-11-03T11:06:11.952Z,3.17
2018-11-03T11:08:44.736Z,3.60
2018-11-03T11:11:17.607Z,5.10
2018-11-03T11:13:45.437Z,4.80
2018-11-03T11:16:12.600Z,5.10
2018-11-03T11:18:40.011Z,5.07
2018-11-03T11:21:07.171Z,5.37
2018-11-03T11:23:34.388Z,4.77
2018-11-03T11:26:01.486Z,4.00
2018-11-03T11:28:28.733Z,4.63
2018-11-03T11:30:55.881Z,4.90
2018-11-03T11:33:23.049Z,4.67
2018-11-03T11:35:51.528Z,4.70
2018-11-03T11:38:18.694Z,4.47
2018-11-03T11:40:45.879Z,4.23
2018-11-03T11:43:13.872Z,4.63
2018-11-03T11:45:40.850Z,3.67
2018-11-03T11:48:08.184Z,3.93
2018-11-03T11:50:35.318Z,3.37
2018-11-03T11:53:02.470Z,3.60
2018-11-03T11:55:29.621Z,3.10
2018-11-03T11:57:56.785Z,3.23
2018-11-03T12:00:23.957Z,3.73
2018-11-03T12:02:51.850Z,5.13
2018-11-03T12:05:19.099Z,4.10
2018-11-03T12:07:46.226Z,3.10
2018-11-03T12:10:13.538Z,2.77
2018-11-03T12:12:40.722Z,2.90
2018-11-03T12:15:08.842Z,2.77
2018-11-03T12:17:36.139Z,3.30
2018-11-03T12:20:03.514Z,3.07
2018-11-03T12:22:30.667Z,3.63
2018-11-03T12:24:57.830Z,3.33
2018-11-03T12:27:25.394Z,2.10
2018-11-03T12:29:52.516Z,2.50
2018-11-03T12:32:19.874Z,3.37
2018-11-03T12:34:47.000Z,3.13
2018-11-03T12:37:14.156Z,3.07
2018-11-03T12:39:41.269Z,3.40
2018-11-03T12:42:08.463Z,3.23
2018-11-03T12:44:35.653Z,3.37
2018-11-03T12:47:02.808Z,3.37
2018-11-03T12:49:29.976Z,3.33
2018-11-03T12:51:57.107Z,3.00
2018-11-03T12:54:24.231Z,3.00
2018-11-03T12:56:51.388Z,3.10
2018-11-03T12:59:18.568Z,2.80
2018-11-03T13:01:45.744Z,2.17
2018-11-03T13:04:12.923Z,3.03
2018-11-03T13:06:40.032Z,3.53
2018-11-03T13:09:07.859Z,3.30
2018-11-03T13:11:34.998Z,3.10
2018-11-03T13:14:02.150Z,3.30
2018-11-03T13:16:29.421Z,2.93
2018-11-03T13:18:56.523Z,3.57
2018-11-03T13:21:23.646Z,3.73
2018-11-03T13:23:50.866Z,3.50
2018-11-03T13:26:18.000Z,3.10
2018-11-03T13:28:45.136Z,3.20
2018-11-03T13:31:12.275Z,3.60
2018-11-03T13:33:39.426Z,3.40
2018-11-03T13:36:06.751Z,3.73
2018-11-03T13:38:33.940Z,3.80
2018-11-03T13:41:01.204Z,2.97
2018-11-03T13:43:28.273Z,3.40
2018-11-03T13:45:55.398Z,3.10
2018-11-03T13:48:22.658Z,4.47
2018-11-03T13:50:49.802Z,3.90
2018-11-03T13:53:16.963Z,3.80
2018-11-03T13:55:44.112Z,3.63
2018-11-03T13:58:11.239Z,3.37
2018-11-03T14:00:38.361Z,3.37
2018-11-03T14:03:05.505Z,3.33
2018-11-03T14:05:32.668Z,3.37
2018-11-03T14:07:59.789Z,3.40
2018-11-03T14:10:26.913Z,3.43
2018-11-03T14:12:54.065Z,3.07
2018-11-03T14:15:21.224Z,3.67
2018-11-03T14:17:48.317Z,3.63
2018-11-03T14:20:16.131Z,3.77
2018-11-03T14:22:43.924Z,4.07
2018-11-03T14:25:12.290Z,4.50
2018-11-03T14:27:40.068Z,3.80
2018-11-03T14:30:08.124Z,4.33
2018-11-03T14:32:35.262Z,3.87
2018-11-03T14:35:02.404Z,3.70
2018-11-03T14:37:29.539Z,3.07
2018-11-03T14:39:56.683Z,3.47
2018-11-03T14:42:23.817Z,3.10
2018-11-03T14:44:51.125Z,3.77
2018-11-03T14:47:18.224Z,3.20
2018-11-03T14:49:47.786Z,3.50
2018-11-03T14:52:16.870Z,3.27
2018-11-03T14:54:48.759Z,2.67
2018-11-03T14:57:16.085Z,3.20
2018-11-03T14:59:43.222Z,2.97
2018-11-03T15:02:10.383Z,2.60
2018-11-03T15:04:37.515Z,2.77
2018-11-03T15:07:04.988Z,2.40
2018-11-03T15:09:32.113Z,2.83
2018-11-03T15:11:59.246Z,2.67
2018-11-03T15:14:26.498Z,2.30
2018-11-03T15:16:53.510Z,2.80
2018-11-03T15:19:20.653Z,2.60
2018-11-03T15:21:47.802Z,2.40
2018-11-03T15:24:14.983Z,2.70
2018-11-03T15:26:42.188Z,2.33
2018-11-03T15:29:09.340Z,2.47
2018-11-03T15:31:36.570Z,2.00
2018-11-03T15:34:03.807Z,2.33
2018-11-03T15:36:30.966Z,2.10
2018-11-03T15:38:59.096Z,2.23
2018-11-03T15:41:27.984Z,2.30
2018-11-03T15:43:55.081Z,2.80
2018-11-03T15:46:22.217Z,2.63
2018-11-03T15:48:49.363Z,2.67
2018-11-03T15:51:16.544Z,2.73
2018-11-03T15:53:43.708Z,3.23
2018-11-03T15:56:10.958Z,3.60
2018-11-03T15:58:38.109Z,3.40
2018-11-03T16:01:05.256Z,3.90
2018-11-03T16:03:32.420Z,4.33
2018-11-03T16:05:59.577Z,3.73
2018-11-03T16:08:26.735Z,3.90
2018-11-03T16:10:53.874Z,4.10
2018-11-03T16:13:21.026Z,4.00
2018-11-03T16:15:48.152Z,4.00
2018-11-03T16:18:15.293Z,5.00
2018-11-03T16:20:42.454Z,4.33
2018-11-03T16:23:09.606Z,4.07
2018-11-03T16:25:37.436Z,3.70
2018-11-03T16:28:04.835Z,3.53
2018-11-03T16:30:31.975Z,4.17
2018-11-03T16:32:59.242Z,3.97
2018-11-03T16:35:26.419Z,4.13
2018-11-03T16:37:53.522Z,4.23
2018-11-03T16:40:20.672Z,4.33
2018-11-03T16:42:47.802Z,4.27
2018-11-03T16:45:15.827Z,4.37
2018-11-03T16:47:43.293Z,4.70
2018-11-03T16:50:11.578Z,4.07
2018-11-03T16:52:39.223Z,4.97
2018-11-03T16:55:06.987Z,4.07
2018-11-03T16:57:34.139Z,4.17
2018-11-03T17:00:01.275Z,4.20
2018-11-03T17:02:28.439Z,4.53
2018-11-03T17:04:55.579Z,4.90
2018-11-03T17:07:22.722Z,4.10
2018-11-03T17:09:49.875Z,4.30
2018-11-03T17:12:17.074Z,4.40
2018-11-03T17:14:44.142Z,5.00
2018-11-03T17:17:11.263Z,4.47
2018-11-03T17:19:38.398Z,4.17
2018-11-03T17:22:05.560Z,4.80
2018-11-03T17:24:32.690Z,4.50
2018-11-03T17:26:59.839Z,4.77
2018-11-03T17:29:27.012Z,4.60
2018-11-03T17:31:54.154Z,4.30
2018-11-03T17:34:21.306Z,4.43
2018-11-03T17:36:48.454Z,5.27
2018-11-03T17:39:15.591Z,8.47
2018-11-03T17:41:42.766Z,7.57
2018-11-03T17:44:09.997Z,8.83
2018-11-03T17:46:37.073Z,8.90
2018-11-03T17:49:04.245Z,10.00
2018-11-03T17:51:31.445Z,11.20
2018-11-03T17:53:58.586Z,9.50
2018-11-03T17:56:25.732Z,5.77
2018-11-03T17:58:52.902Z,4.40
2018-11-03T18:01:20.241Z,4.90
2018-11-03T18:03:47.163Z,4.23
2018-11-03T18:06:14.339Z,4.17
2018-11-03T18:08:41.462Z,4.53
2018-11-03T18:11:08.579Z,4.07
2018-11-03T18:13:35.986Z,4.10
2018-11-03T18:16:03.110Z,4.27
2018-11-03T18:18:30.240Z,4.33
2018-11-03T18:20:57.367Z,4.20
2018-11-03T18:23:24.510Z,4.07
2018-11-03T18:25:51.642Z,4.60
2018-11-03T18:28:18.773Z,3.83
2018-11-03T18:30:45.963Z,4.87
2018-11-03T18:33:13.233Z,4.93
2018-11-03T18:35:40.346Z,5.53
2018-11-03T18:38:07.467Z,4.80
2018-11-03T18:40:34.726Z,5.27
2018-11-03T18:43:01.854Z,6.13
2018-11-03T18:45:28.976Z,5.87
2018-11-03T18:47:56.121Z,5.83
2018-11-03T18:50:23.265Z,5.57
2018-11-03T18:52:50.419Z,6.20
2018-11-03T18:55:17.570Z,5.33
2018-11-03T18:57:44.696Z,4.67
2018-11-03T19:00:11.837Z,5.60
2018-11-03T19:02:39.832Z,5.60
2018-11-03T19:05:07.403Z,5.43
2018-11-03T19:07:34.558Z,5.97
2018-11-03T19:10:01.698Z,5.60
2018-11-03T19:12:28.853Z,6.47
2018-11-03T19:14:56.018Z,5.47
2018-11-03T19:17:23.144Z,5.57
2018-11-03T19:19:50.284Z,5.03
2018-11-03T19:22:17.418Z,5.80
2018-11-03T19:24:44.526Z,5.77
2018-11-03T19:27:11.655Z,5.67
2018-11-03T19:29:38.911Z,5.93
2018-11-03T19:32:06.310Z,6.20
2018-11-03T19:34:33.441Z,6.27
2018-11-03T19:37:00.594Z,6.23
2018-11-03T19:39:27.710Z,6.23
2018-11-03T19:41:54.851Z,6.17
2018-11-03T19:44:22.014Z,5.77
2018-11-03T19:46:49.143Z,5.73
2018-11-03T19:49:16.311Z,6.47
2018-11-03T19:51:43.591Z,5.93
2018-11-03T19:54:10.944Z,7.17
2018-11-03T19:56:38.113Z,7.23
2018-11-03T19:59:05.259Z,6.17
2018-11-03T20:01:32.398Z,7.03
2018-11-03T20:03:59.530Z,7.83
2018-11-03T20:06:26.679Z,6.83
2018-11-03T20:08:53.814Z,7.70
2018-11-03T20:11:20.941Z,6.77
2018-11-03T20:13:48.074Z,7.40
2018-11-03T20:16:15.195Z,7.07
2018-11-03T20:18:42.315Z,6.90
2018-11-03T20:21:09.443Z,6.90
2018-11-03T20:23:36.581Z,8.03
2018-11-03T20:26:03.828Z,7.17
2018-11-03T20:28:30.946Z,7.70
2018-11-03T20:30:58.075Z,7.63
2018-11-03T20:33:25.223Z,7.20
2018-11-03T20:35:52.348Z,7.00
2018-11-03T20:38:19.746Z,7.33
2018-11-03T20:40:46.874Z,7.43
2018-11-03T20:43:14.002Z,7.93
2018-11-03T20:45:41.150Z,8.20
2018-11-03T20:48:08.386Z,7.73
2018-11-03T20:50:35.556Z,6.97
2018-11-03T20:53:02.706Z,7.43
2018-11-03T20:55:29.896Z,7.83
2018-11-03T20:57:57.072Z,6.90
2018-11-03T21:00:24.225Z,8.53
2018-11-03T21:02:51.374Z,7.07
2018-11-03T21:05:18.730Z,7.27
2018-11-03T21:07:46.086Z,7.43
2018-11-03T21:10:13.294Z,7.70
2018-11-03T21:12:40.482Z,7.73
2018-11-03T21:15:07.651Z,7.90
2018-11-03T21:17:34.905Z,8.43
2018-11-03T21:20:02.213Z,7.10
2018-11-03T21:22:29.331Z,8.03
2018-11-03T21:24:56.453Z,7.00
2018-11-03T21:27:23.596Z,7.57
2018-11-03T21:29:50.747Z,7.77
2018-11-03T21:32:18.008Z,7.67
2018-11-03T21:34:45.078Z,7.83
2018-11-03T21:37:12.222Z,8.00
2018-11-03T21:39:39.366Z,8.47
2018-11-03T21:42:06.670Z,9.00
2018-11-03T21:44:33.946Z,8.83
2018-11-03T21:47:01.130Z,8.30
2018-11-03T21:49:28.227Z,7.60
2018-11-03T21:51:55.394Z,8.37
2018-11-03T21:54:22.544Z,8.60
2018-11-03T21:56:49.789Z,8.53
2018-11-03T21:59:16.918Z,8.63
2018-11-03T22:01:44.041Z,9.23
2018-11-03T22:04:11.217Z,8.40
2018-11-03T22:06:38.595Z,9.03
2018-11-03T22:09:07.916Z,7.40
2018-11-03T22:11:35.424Z,7.77
2018-11-03T22:14:02.626Z,7.83
2018-11-03T22:16:29.759Z,8.20
2018-11-03T22:18:56.882Z,7.87
2018-11-03T22:21:24.006Z,9.10
2018-11-03T22:23:51.136Z,8.63
2018-11-03T22:26:18.287Z,8.30
2018-11-03T22:28:45.419Z,8.47
2018-11-03T22:31:12.557Z,8.07
2018-11-03T22:33:39.658Z,7.47
2018-11-03T22:36:06.770Z,8.10
2018-11-03T22:38:33.903Z,7.33
2018-11-03T22:41:01.028Z,8.40
2018-11-03T22:43:28.168Z,7.93
2018-11-03T22:45:55.310Z,7.97
2018-11-03T22:48:22.447Z,7.57
2018-11-03T22:50:49.596Z,7.73
2018-11-03T22:53:16.738Z,7.13
2018-11-03T22:55:43.942Z,7.50
2018-11-03T22:58:11.060Z,8.30
2018-11-03T23:00:44.031Z,8.03
2018-11-03T23:03:11.210Z,7.97
2018-11-03T23:05:38.347Z,7.97
2018-11-03T23:08:05.560Z,8.33
2018-11-03T23:10:32.700Z,8.33
2018-11-03T23:12:59.918Z,8.20
2018-11-03T23:15:26.970Z,8.13
2018-11-03T23:17:54.145Z,9.00
2018-11-03T23:20:21.287Z,8.97
2018-11-03T23:22:48.414Z,8.23
2018-11-03T23:25:15.570Z,7.63
2018-11-03T23:27:42.703Z,8.67
2018-11-03T23:30:11.294Z,8.97
2018-11-03T23:32:38.422Z,8.30
2018-11-03T23:35:06.648Z,8.63
2018-11-03T23:37:33.767Z,8.10
2018-11-03T23:40:00.906Z,7.53
2018-11-03T23:42:28.071Z,7.70
2018-11-03T23:44:55.239Z,8.23
2018-11-03T23:47:22.329Z,7.60
2018-11-03T23:49:49.462Z,8.33
2018-11-03T23:52:21.218Z,7.97
2018-11-03T23:54:48.357Z,7.53
2018-11-03T23:57:15.510Z,7.20
2018-11-03T23:59:42.652Z,6.57
